Time,TemperatureF,DewpointF,PressureIn,WindDirection,WindDirectionDegrees,WindSpeedMPH,WindSpeedGustMPH,Humidity,HourlyPrecipIn,Conditions,Clouds,dailyrainin,SoftwareType,DateUTC
2013-05-21 00:10:00,28.0,27.0,30.10,South,189,0.0,0.0,94,0.00,,,0.00,weatherlink.com 1.10,2013-05-21 06:10:00,
2013-05-21 00:25:00,27.9,26.0,30.10,SSW,202,0.0,1.0,94,0.00,,,0.00,weatherlink.com 1.10,2013-05-21 06:25:00,
2013-05-21 00:40:00,27.5,26.0,30.10,SSW,202,0.0,0.0,93,0.00,,,0.00,weatherlink.com 1.10,2013-05-21 06:40:00,
2013-05-21 00:55:00,27.3,26.0,30.10,SSW,202,0.0,1.0,94,0.00,,,0.00,weatherlink.com 1.10,2013-05-21 06:55:00,
2013-05-21 01:10:00,27.3,26.0,30.09,SSE,159,0.0,1.0,94,0.00,,,0.00,weatherlink.com 1.10,2013-05-21 07:10:00,
2013-05-21 01:25:00,27.0,25.0,30.09,South,186,0.0,0.0,93,0.00,,,0.00,weatherlink.com 1.10,2013-05-21 07:25:00,
2013-05-21 01:40:00,26.5,25.0,30.08,South,186,0.0,0.0,94,0.00,,,0.00,weatherlink.com 1.10,2013-05-21 07:40:00,
2013-05-21 01:55:00,26.2,25.0,30.08,SSE,167,0.0,1.0,94,0.00,,,0.00,weatherlink.com 1.10,2013-05-21 07:55:00,
2013-05-21 02:10:00,26.0,25.0,30.07,SSW,203,0.0,0.0,94,0.00,,,0.00,weatherlink.com 1.10,2013-05-21 08:10:00,
2013-05-21 02:25:00,25.6,24.0,30.07,SSW,203,0.0,0.0,94,0.00,,,0.00,weatherlink.com 1.10,2013-05-21 08:25:00,
2013-05-21 02:40:00,25.3,24.0,30.07,SSW,203,0.0,0.0,94,0.00,,,0.00,weatherlink.com 1.10,2013-05-21 08:40:00,
2013-05-21 02:56:00,24.9,24.0,30.06,SSW,203,0.0,0.0,94,0.00,,,0.00,weatherlink.com 1.10,2013-05-21 08:56:00,
2013-05-21 03:11:00,24.7,23.0,30.07,SSW,202,0.0,0.0,94,0.00,,,0.00,weatherlink.com 1.10,2013-05-21 09:11:00,
2013-05-21 03:26:00,24.4,23.0,30.08,SSW,202,0.0,0.0,94,0.00,,,0.00,weatherlink.com 1.10,2013-05-21 09:26:00,
2013-05-21 03:41:00,24.7,23.0,30.07,ESE,116,0.0,2.0,94,0.00,,,0.00,weatherlink.com 1.10,2013-05-21 09:41:00,
2013-05-21 03:56:00,25.0,24.0,30.08,SW,214,0.0,1.0,94,0.00,,,0.00,weatherlink.com 1.10,2013-05-21 09:56:00,
2013-05-21 04:11:00,24.7,23.0,30.09,SW,214,0.0,1.0,93,0.00,,,0.00,weatherlink.com 1.10,2013-05-21 10:11:00,
2013-05-21 04:26:00,24.6,23.0,30.09,SSE,148,0.0,1.0,94,0.00,,,0.00,weatherlink.com 1.10,2013-05-21 10:26:00,
2013-05-21 04:41:00,24.5,23.0,30.09,SSE,148,0.0,0.0,94,0.00,,,0.00,weatherlink.com 1.10,2013-05-21 10:41:00,
2013-05-21 04:56:00,24.8,23.0,30.10,SSE,160,0.0,1.0,94,0.00,,,0.00,weatherlink.com 1.10,2013-05-21 10:56:00,
2013-05-21 05:11:00,25.0,24.0,30.10,SSE,160,0.0,1.0,94,0.00,,,0.00,weatherlink.com 1.10,2013-05-21 11:11:00,
2013-05-21 05:26:00,25.1,24.0,30.11,SSE,160,0.0,0.0,94,0.00,,,0.00,weatherlink.com 1.10,2013-05-21 11:26:00,
2013-05-21 05:41:00,25.3,24.0,30.11,SSE,161,0.0,0.0,94,0.00,,,0.00,weatherlink.com 1.10,2013-05-21 11:41:00,
2013-05-21 05:56:00,25.5,24.0,30.11,SSE,161,0.0,0.0,94,0.00,,,0.00,weatherlink.com 1.10,2013-05-21 11:56:00,
2013-05-21 06:11:00,25.7,24.0,30.12,SSE,161,0.0,0.0,94,0.00,,,0.00,weatherlink.com 1.10,2013-05-21 12:11:00,
2013-05-21 06:26:00,26.2,25.0,30.12,SSE,161,0.0,0.0,94,0.00,,,0.00,weatherlink.com 1.10,2013-05-21 12:26:00,
2013-05-21 06:41:00,27.0,26.0,30.12,SSE,161,0.0,0.0,94,0.00,,,0.00,weatherlink.com 1.10,2013-05-21 12:41:00,
2013-05-21 06:56:00,27.7,26.0,30.12,SSE,162,0.0,0.0,94,0.00,,,0.00,weatherlink.com 1.10,2013-05-21 12:56:00,
2013-05-21 07:11:00,28.3,27.0,30.13,SSE,162,0.0,0.0,93,0.00,,,0.00,weatherlink.com 1.10,2013-05-21 13:11:00,
2013-05-21 07:26:00,28.9,27.0,30.13,SSE,162,0.0,0.0,93,0.00,,,0.00,weatherlink.com 1.10,2013-05-21 13:26:00,
2013-05-21 07:41:00,29.7,28.0,30.12,SSE,162,0.0,0.0,92,0.00,,,0.00,weatherlink.com 1.10,2013-05-21 13:41:00,
2013-05-21 07:56:00,31.0,28.0,30.12,SSE,162,0.0,0.0,88,0.00,,,0.00,weatherlink.com 1.10,2013-05-21 13:56:00,
2013-05-21 08:11:00,32.9,29.0,30.11,ESE,105,0.0,2.0,85,0.00,,,0.00,weatherlink.com 1.10,2013-05-21 14:11:00,
2013-05-21 08:26:00,34.8,29.0,30.10,East,94,1.0,3.0,78,0.00,,,0.00,weatherlink.com 1.10,2013-05-21 14:26:00,
2013-05-21 08:41:00,36.3,30.0,30.09,ESE,112,1.0,4.0,77,0.00,,,0.00,weatherlink.com 1.10,2013-05-21 14:41:00,
2013-05-21 08:56:00,38.0,29.0,30.09,ESE,108,1.0,5.0,70,0.00,,,0.00,weatherlink.com 1.10,2013-05-21 14:56:00,
2013-05-21 09:12:00,39.6,30.0,30.08,SW,221,0.0,6.0,68,0.00,,,0.00,weatherlink.com 1.10,2013-05-21 15:12:00,
2013-05-21 09:27:00,41.0,29.0,30.07,ESE,105,3.0,8.0,63,0.00,,,0.00,weatherlink.com 1.10,2013-05-21 15:27:00,
2013-05-21 09:42:00,41.7,30.0,30.07,ESE,106,4.0,8.0,64,0.00,,,0.00,weatherlink.com 1.10,2013-05-21 15:42:00,
2013-05-21 09:57:00,41.8,30.0,30.07,ESE,104,4.0,8.0,64,0.00,,,0.00,weatherlink.com 1.10,2013-05-21 15:57:00,
2013-05-21 10:12:00,42.8,31.0,30.06,NE,38,1.0,7.0,64,0.00,,,0.00,weatherlink.com 1.10,2013-05-21 16:12:00,
2013-05-21 10:27:00,42.7,31.0,30.06,ESE,115,2.0,9.0,63,0.00,,,0.00,weatherlink.com 1.10,2013-05-21 16:27:00,
2013-05-21 10:42:00,42.7,30.0,30.05,SSE,162,0.0,7.0,62,0.00,,,0.00,weatherlink.com 1.10,2013-05-21 16:42:00,
2013-05-21 10:57:00,44.0,31.0,30.05,NW,307,4.0,6.0,60,0.00,,,0.00,weatherlink.com 1.10,2013-05-21 16:57:00,
2013-05-21 11:12:00,44.8,30.0,30.05,ESE,119,1.0,10.0,56,0.00,,,0.00,weatherlink.com 1.10,2013-05-21 17:12:00,
2013-05-21 11:27:00,46.8,32.0,30.03,SW,218,3.0,12.0,56,0.00,,,0.00,weatherlink.com 1.10,2013-05-21 17:27:00,
2013-05-21 11:42:00,47.5,29.0,30.02,WNW,302,2.0,8.0,49,0.00,,,0.00,weatherlink.com 1.10,2013-05-21 17:42:00,
2013-05-21 11:57:00,49.7,30.0,30.02,NW,309,3.0,11.0,47,0.00,,,0.00,weatherlink.com 1.10,2013-05-21 17:57:00,
2013-05-21 12:12:00,49.4,29.0,30.02,East,91,2.0,9.0,45,0.00,,,0.00,weatherlink.com 1.10,2013-05-21 18:12:00,
2013-05-21 12:27:00,50.8,28.0,30.01,ESE,105,6.0,10.0,42,0.00,,,0.00,weatherlink.com 1.10,2013-05-21 18:27:00,
2013-05-21 12:42:00,50.6,26.0,30.00,ESE,117,6.0,11.0,38,0.00,,,0.00,weatherlink.com 1.10,2013-05-21 18:42:00,
2013-05-21 12:57:00,49.4,28.0,30.00,ESE,105,2.0,12.0,43,0.00,,,0.00,weatherlink.com 1.10,2013-05-21 18:57:00,
2013-05-21 13:12:00,50.5,25.0,30.00,ESE,103,6.0,11.0,37,0.00,,,0.00,weatherlink.com 1.10,2013-05-21 19:12:00,
2013-05-21 13:27:00,50.8,23.0,30.00,East,91,7.0,12.0,34,0.00,,,0.00,weatherlink.com 1.10,2013-05-21 19:27:00,
2013-05-21 13:42:00,51.7,27.0,30.00,ESE,102,1.0,15.0,38,0.00,,,0.00,weatherlink.com 1.10,2013-05-21 19:42:00,
2013-05-21 13:57:00,52.2,22.0,29.98,ESE,108,6.0,13.0,31,0.00,,,0.00,weatherlink.com 1.10,2013-05-21 19:57:00,
2013-05-21 14:12:00,54.0,22.0,29.98,East,84,8.0,18.0,29,0.00,,,0.00,weatherlink.com 1.10,2013-05-21 20:12:00,
2013-05-21 14:27:00,54.0,23.0,29.98,East,89,7.0,15.0,30,0.00,,,0.00,weatherlink.com 1.10,2013-05-21 20:27:00,
2013-05-21 14:42:00,55.3,24.0,29.97,East,89,12.0,18.0,30,0.00,,,0.00,weatherlink.com 1.10,2013-05-21 20:42:00,
2013-05-21 14:57:00,54.7,22.0,29.97,East,97,8.0,19.0,28,0.00,,,0.00,weatherlink.com 1.10,2013-05-21 20:57:00,
2013-05-21 15:28:00,53.8,23.0,29.96,East,99,8.0,12.0,30,0.00,,,0.00,weatherlink.com 1.10,2013-05-21 21:28:00,
2013-05-21 15:43:00,53.9,22.0,29.97,South,183,1.0,17.0,29,0.00,,,0.00,weatherlink.com 1.10,2013-05-21 21:43:00,
2013-05-21 15:58:00,54.1,25.0,29.97,ENE,59,3.0,15.0,32,0.00,,,0.00,weatherlink.com 1.10,2013-05-21 21:58:00,
2013-05-21 16:13:00,54.5,24.0,29.96,ESE,108,2.0,17.0,31,0.00,,,0.00,weatherlink.com 1.10,2013-05-21 22:13:00,
2013-05-21 16:28:00,53.8,26.0,29.95,SSE,156,0.0,11.0,34,0.00,,,0.00,weatherlink.com 1.10,2013-05-21 22:28:00,
2013-05-21 16:43:00,53.7,22.0,29.94,West,259,2.0,12.0,29,0.00,,,0.00,weatherlink.com 1.10,2013-05-21 22:43:00,
2013-05-21 16:58:00,54.3,24.0,29.94,East,79,10.0,14.0,31,0.00,,,0.00,weatherlink.com 1.10,2013-05-21 22:58:00,
2013-05-21 17:13:00,54.4,26.0,29.93,ENE,76,1.0,13.0,34,0.00,,,0.00,weatherlink.com 1.10,2013-05-21 23:13:00,
2013-05-21 17:28:00,53.3,26.0,29.94,East,86,4.0,13.0,35,0.00,,,0.00,weatherlink.com 1.10,2013-05-21 23:28:00,
2013-05-21 17:43:00,54.0,25.0,29.93,ESE,108,8.0,10.0,32,0.00,,,0.00,weatherlink.com 1.10,2013-05-21 23:43:00,
2013-05-21 17:58:00,53.8,24.0,29.93,ESE,105,8.0,13.0,32,0.00,,,0.00,weatherlink.com 1.10,2013-05-21 23:58:00,
2013-05-21 18:13:00,53.3,23.0,29.93,ESE,111,3.0,12.0,31,0.00,,,0.00,weatherlink.com 1.10,2013-05-22 00:13:00,
2013-05-21 18:28:00,53.5,23.0,29.92,ESE,113,0.0,9.0,31,0.00,,,0.00,weatherlink.com 1.10,2013-05-22 00:28:00,
2013-05-21 18:43:00,53.3,24.0,29.92,SE,131,7.0,10.0,32,0.00,,,0.00,weatherlink.com 1.10,2013-05-22 00:43:00,
2013-05-21 18:58:00,53.0,24.0,29.92,East,93,5.0,12.0,32,0.00,,,0.00,weatherlink.com 1.10,2013-05-22 00:58:00,
2013-05-21 19:13:00,50.8,24.0,29.92,East,84,2.0,10.0,35,0.00,,,0.00,weatherlink.com 1.10,2013-05-22 01:13:00,
2013-05-21 19:28:00,50.2,25.0,29.92,ESE,108,0.0,8.0,37,0.00,,,0.00,weatherlink.com 1.10,2013-05-22 01:28:00,
2013-05-21 19:43:00,49.4,27.0,29.92,ESE,114,0.0,1.0,42,0.00,,,0.00,weatherlink.com 1.10,2013-05-22 01:43:00,
2013-05-21 19:58:00,47.9,26.0,29.92,ESE,112,0.0,2.0,43,0.00,,,0.00,weatherlink.com 1.10,2013-05-22 01:58:00,
2013-05-21 20:13:00,45.6,27.0,29.92,ESE,112,0.0,0.0,48,0.00,,,0.00,weatherlink.com 1.10,2013-05-22 02:13:00,
2013-05-21 20:28:00,41.9,28.0,29.93,ESE,113,0.0,1.0,58,0.00,,,0.00,weatherlink.com 1.10,2013-05-22 02:28:00,
2013-05-21 20:43:00,39.8,27.0,29.93,South,171,0.0,1.0,61,0.00,,,0.00,weatherlink.com 1.10,2013-05-22 02:43:00,
2013-05-21 20:58:00,38.3,27.0,29.93,SW,233,0.0,2.0,64,0.00,,,0.00,weatherlink.com 1.10,2013-05-22 02:58:00,
2013-05-21 21:13:00,38.0,27.0,29.94,SSW,203,0.0,2.0,65,0.00,,,0.00,weatherlink.com 1.10,2013-05-22 03:13:00,
2013-05-21 21:28:00,38.2,26.0,29.94,WSW,245,0.0,2.0,63,0.00,,,0.00,weatherlink.com 1.10,2013-05-22 03:28:00,
2013-05-21 21:43:00,37.6,27.0,29.94,WSW,240,0.0,2.0,65,0.00,,,0.00,weatherlink.com 1.10,2013-05-22 03:43:00,
2013-05-21 21:58:00,36.7,26.0,29.95,WSW,240,0.0,1.0,66,0.00,,,0.00,weatherlink.com 1.10,2013-05-22 03:58:00,
2013-05-21 22:13:00,35.9,27.0,29.95,WSW,240,0.0,1.0,69,0.00,,,0.00,weatherlink.com 1.10,2013-05-22 04:13:00,
2013-05-21 22:28:00,35.5,27.0,29.95,WSW,240,0.0,1.0,70,0.00,,,0.00,weatherlink.com 1.10,2013-05-22 04:28:00,
2013-05-21 22:43:00,35.1,26.0,29.95,SSW,201,0.0,0.0,69,0.00,,,0.00,weatherlink.com 1.10,2013-05-22 04:43:00,
2013-05-21 22:58:00,34.4,26.0,29.95,SSW,207,0.0,1.0,71,0.00,,,0.00,weatherlink.com 1.10,2013-05-22 04:58:00,
2013-05-21 23:13:00,33.6,25.0,29.95,SSW,206,0.0,1.0,72,0.00,,,0.00,weatherlink.com 1.10,2013-05-22 05:13:00,
2013-05-21 23:28:00,33.1,25.0,29.95,SSW,207,0.0,1.0,73,0.00,,,0.00,weatherlink.com 1.10,2013-05-22 05:28:00,
2013-05-21 23:43:00,33.5,26.0,29.95,SSW,207,0.0,1.0,74,0.00,,,0.00,weatherlink.com 1.10,2013-05-22 05:43:00,
2013-05-21 23:58:00,33.9,26.0,29.95,SSW,206,0.0,0.0,74,0.00,,,0.00,weatherlink.com 1.10,2013-05-22 05:58:00,